createdAt,value
2023-03-12T00:00:00.590Z,73.71
2023-03-12T00:02:32.374Z,73.71
2023-03-12T00:05:01.507Z,73.59
2023-03-12T00:07:32.184Z,73.76
2023-03-12T00:10:02.826Z,73.65
2023-03-12T00:12:33.684Z,73.66
2023-03-12T00:15:04.632Z,73.64
2023-03-12T00:17:35.359Z,73.73
2023-03-12T00:20:14.224Z,73.55
2023-03-12T00:22:44.838Z,73.58
2023-03-12T00:25:17.171Z,73.82
2023-03-12T00:27:48.133Z,73.61
2023-03-12T00:30:19.064Z,73.72
2023-03-12T00:32:49.838Z,73.67
2023-03-12T00:35:20.897Z,73.66
2023-03-12T00:37:51.474Z,73.63
2023-03-12T00:40:22.160Z,73.50
2023-03-12T00:42:52.927Z,73.45
2023-03-12T00:45:23.649Z,73.64
2023-03-12T00:47:54.243Z,73.56
2023-03-12T00:50:32.414Z,73.58
2023-03-12T00:53:03.084Z,73.69
2023-03-12T00:55:33.900Z,73.66
2023-03-12T00:58:04.611Z,73.63
2023-03-12T01:00:35.335Z,73.61
2023-03-12T01:03:06.448Z,73.69
2023-03-12T01:05:35.511Z,73.78
2023-03-12T01:08:07.178Z,73.59
2023-03-12T01:10:41.812Z,73.68
2023-03-12T01:13:12.458Z,73.61
2023-03-12T01:15:43.295Z,73.63
2023-03-12T01:18:14.155Z,73.54
2023-03-12T01:20:44.767Z,73.56
2023-03-12T01:23:15.717Z,73.28
2023-03-12T01:25:46.456Z,73.49
2023-03-12T01:28:17.148Z,73.29
2023-03-12T01:30:47.838Z,73.27
2023-03-12T01:33:18.525Z,73.22
2023-03-12T01:35:49.236Z,73.21
2023-03-12T01:38:19.956Z,73.08
2023-03-12T01:40:50.621Z,73.17
2023-03-12T01:43:31.370Z,73.05
2023-03-12T01:46:17.030Z,73.01
2023-03-12T01:48:51.563Z,73.07
2023-03-12T01:51:25.526Z,72.88
2023-03-12T01:53:59.948Z,72.91
2023-03-12T01:56:34.659Z,72.77
2023-03-12T01:59:11.670Z,72.69
2023-03-12T02:01:43.740Z,72.58
2023-03-12T02:04:16.231Z,72.68
2023-03-12T02:06:50.260Z,72.73
2023-03-12T02:09:21.944Z,72.75
2023-03-12T02:11:52.854Z,72.57
2023-03-12T02:14:23.843Z,72.59
2023-03-12T02:16:53.293Z,72.65
2023-03-12T02:19:30.553Z,72.62
2023-03-12T02:22:01.742Z,72.71
2023-03-12T02:24:38.528Z,72.68
2023-03-12T02:27:11.099Z,72.80
2023-03-12T02:29:45.818Z,72.80
2023-03-12T02:32:21.688Z,72.82
2023-03-12T02:34:52.411Z,72.77
2023-03-12T02:37:23.218Z,72.71
2023-03-12T02:40:00.337Z,72.63
2023-03-12T02:42:31.917Z,72.59
2023-03-12T02:45:03.618Z,72.48
2023-03-12T02:47:34.342Z,72.40
2023-03-12T02:50:07.292Z,72.52
2023-03-12T02:52:38.042Z,72.45
2023-03-12T02:55:09.966Z,72.34
2023-03-12T02:57:40.671Z,72.50
2023-03-12T03:00:16.031Z,72.41
2023-03-12T03:02:46.748Z,72.41
2023-03-12T03:05:17.602Z,72.46
2023-03-12T03:07:48.299Z,72.47
2023-03-12T03:10:20.625Z,72.32
2023-03-12T03:12:51.420Z,72.29
2023-03-12T03:15:23.582Z,72.37
2023-03-12T03:17:54.260Z,72.22
2023-03-12T03:20:25.468Z,72.25
2023-03-12T03:22:56.189Z,72.22
2023-03-12T03:25:26.999Z,72.31
2023-03-12T03:27:57.810Z,72.27
2023-03-12T03:30:28.843Z,72.27
2023-03-12T03:32:59.463Z,72.43
2023-03-12T03:35:30.188Z,72.51
2023-03-12T03:38:00.887Z,72.57
2023-03-12T03:40:31.901Z,72.62
2023-03-12T03:43:01.354Z,72.72
2023-03-12T03:45:32.060Z,72.72
2023-03-12T03:48:02.761Z,72.79
2023-03-12T03:50:33.394Z,72.94
2023-03-12T03:53:04.126Z,73.03
2023-03-12T03:55:37.505Z,73.04
2023-03-12T03:58:08.440Z,73.02
2023-03-12T04:00:39.167Z,73.12
2023-03-12T04:03:09.883Z,73.04
2023-03-12T04:05:41.019Z,73.16
2023-03-12T04:08:13.114Z,73.25
2023-03-12T04:10:43.699Z,73.32
2023-03-12T04:13:14.379Z,73.30
2023-03-12T04:15:50.085Z,73.36
2023-03-12T04:18:21.103Z,73.37
2023-03-12T04:20:51.831Z,73.46
2023-03-12T04:23:22.502Z,73.45
2023-03-12T04:25:53.096Z,73.44
2023-03-12T04:28:23.832Z,73.38
2023-03-12T04:30:58.218Z,73.53
2023-03-12T04:33:29.826Z,73.50
2023-03-12T04:36:00.760Z,73.40
2023-03-12T04:38:31.738Z,73.55
2023-03-12T04:41:04.706Z,73.57
2023-03-12T04:43:35.822Z,73.54
2023-03-12T04:46:05.115Z,73.59
2023-03-12T04:48:36.350Z,73.63
2023-03-12T04:51:08.749Z,73.76
2023-03-12T04:53:39.522Z,73.75
2023-03-12T04:56:10.412Z,73.83
2023-03-12T04:58:41.003Z,73.91
2023-03-12T05:01:22.734Z,73.90
2023-03-12T05:03:54.280Z,73.86
2023-03-12T05:06:26.629Z,74.00
2023-03-12T05:08:57.363Z,74.04
2023-03-12T05:11:27.955Z,74.08
2023-03-12T05:13:58.672Z,74.08
2023-03-12T05:16:29.304Z,74.23
2023-03-12T05:19:00.325Z,74.00
2023-03-12T05:21:31.139Z,74.10
2023-03-12T05:24:01.890Z,74.13
2023-03-12T05:26:33.848Z,74.11
2023-03-12T05:29:05.471Z,74.12
2023-03-12T05:31:36.161Z,73.99
2023-03-12T05:34:07.010Z,74.07
2023-03-12T05:36:37.757Z,73.98
2023-03-12T05:39:08.472Z,73.87
2023-03-12T05:41:39.421Z,73.89
2023-03-12T05:44:13.159Z,73.92
2023-03-12T05:46:43.999Z,73.85
2023-03-12T05:49:14.684Z,73.78
2023-03-12T05:51:46.225Z,73.65
2023-03-12T05:54:17.341Z,73.70
2023-03-12T05:56:46.405Z,73.71
2023-03-12T05:59:17.046Z,73.54
2023-03-12T06:01:47.727Z,73.46
2023-03-12T06:04:18.514Z,73.47
2023-03-12T06:06:49.452Z,73.37
2023-03-12T06:09:20.161Z,73.39
2023-03-12T06:11:50.867Z,73.45
2023-03-12T06:14:21.548Z,73.44
2023-03-12T06:16:52.344Z,73.46
2023-03-12T06:19:23.198Z,73.40
2023-03-12T06:21:53.870Z,73.19
2023-03-12T06:24:25.722Z,73.17
2023-03-12T06:26:56.466Z,73.26
2023-03-12T06:29:27.386Z,72.97
2023-03-12T06:31:58.278Z,72.98
2023-03-12T06:34:29.321Z,72.41
2023-03-12T06:37:00.620Z,72.54
2023-03-12T06:39:31.400Z,72.43
2023-03-12T06:42:02.304Z,72.19
2023-03-12T06:44:33.829Z,72.37
2023-03-12T06:47:02.916Z,72.10
2023-03-12T06:49:33.686Z,72.17
2023-03-12T06:52:04.768Z,72.09
2023-03-12T06:54:33.887Z,71.95
2023-03-12T06:57:05.213Z,71.64
2023-03-12T06:59:34.537Z,71.69
2023-03-12T07:02:05.577Z,71.75
2023-03-12T07:04:36.706Z,71.56
2023-03-12T07:07:09.172Z,71.45
2023-03-12T07:09:40.076Z,71.23
2023-03-12T07:12:11.465Z,71.16
2023-03-12T07:14:42.284Z,71.55
2023-03-12T07:17:11.674Z,70.65
2023-03-12T07:19:43.485Z,70.21
2023-03-12T07:22:14.474Z,70.04
2023-03-12T07:24:45.770Z,70.17
2023-03-12T07:27:16.784Z,69.70
2023-03-12T07:29:47.876Z,69.60
2023-03-12T07:32:17.342Z,69.70
2023-03-12T07:34:48.260Z,69.43
2023-03-12T07:37:19.251Z,69.21
2023-03-12T07:39:50.127Z,69.53
2023-03-12T07:42:21.171Z,68.15
2023-03-12T07:44:52.119Z,68.84
2023-03-12T07:47:24.537Z,68.60
2023-03-12T07:49:55.785Z,68.52
2023-03-12T07:52:27.746Z,68.62
2023-03-12T07:54:58.893Z,68.65
2023-03-12T07:57:29.833Z,67.35
2023-03-12T07:59:59.355Z,67.49
2023-03-12T08:02:30.278Z,67.60
2023-03-12T08:05:01.593Z,67.23
2023-03-12T08:07:33.405Z,66.67
2023-03-12T08:10:16.896Z,67.62
2023-03-12T08:12:48.106Z,66.43
2023-03-12T08:15:18.988Z,66.28
2023-03-12T08:17:49.761Z,65.98
2023-03-12T08:20:20.975Z,65.97
2023-03-12T08:22:51.931Z,65.98
2023-03-12T08:25:22.998Z,65.00
2023-03-12T08:27:54.210Z,63.68
2023-03-12T08:30:26.427Z,63.32
2023-03-12T08:32:58.310Z,62.73
2023-03-12T08:35:37.826Z,63.78
2023-03-12T08:38:09.255Z,63.09
2023-03-12T08:40:38.945Z,63.18
2023-03-12T08:43:10.172Z,62.56
2023-03-12T08:45:41.442Z,63.39
2023-03-12T08:48:10.927Z,62.35
2023-03-12T08:50:42.521Z,62.32
2023-03-12T08:53:13.491Z,60.46
2023-03-12T08:55:44.358Z,61.04
2023-03-12T08:58:13.807Z,61.85
2023-03-12T09:00:44.590Z,59.73
2023-03-12T09:03:15.353Z,60.56
2023-03-12T09:05:46.335Z,61.71
2023-03-12T09:08:18.115Z,61.03
2023-03-12T09:10:51.078Z,60.61
2023-03-12T09:13:22.130Z,58.44
2023-03-12T09:15:53.141Z,58.82
2023-03-12T09:18:24.132Z,59.33
2023-03-12T09:20:55.348Z,58.98
2023-03-12T09:23:27.000Z,58.64
2023-03-12T09:25:58.055Z,57.73
2023-03-12T09:28:27.414Z,58.36
2023-03-12T09:31:02.898Z,57.67
2023-03-12T09:33:34.608Z,56.18
2023-03-12T09:36:07.645Z,57.11
2023-03-12T09:38:38.505Z,56.22
2023-03-12T09:41:19.359Z,56.52
2023-03-12T09:43:56.909Z,56.42
2023-03-12T09:46:35.619Z,55.58
2023-03-12T09:49:14.690Z,55.58
2023-03-12T09:51:48.554Z,55.09
2023-03-12T09:54:28.152Z,53.53
2023-03-12T09:57:03.519Z,51.62
2023-03-12T09:59:34.478Z,52.01
2023-03-12T10:02:20.108Z,53.42
2023-03-12T10:05:00.048Z,53.54
2023-03-12T10:07:35.839Z,52.56
2023-03-12T10:10:28.009Z,53.77
2023-03-12T10:13:14.904Z,52.84
2023-03-12T10:15:54.524Z,53.71
2023-03-12T10:18:37.457Z,50.91
2023-03-12T10:21:14.857Z,52.03
2023-03-12T10:23:57.808Z,51.25
2023-03-12T10:26:33.934Z,51.07
2023-03-12T10:29:11.842Z,50.99
2023-03-12T10:31:51.923Z,51.10
2023-03-12T10:34:30.742Z,50.45
2023-03-12T10:37:11.532Z,50.98
2023-03-12T10:39:42.593Z,48.15
2023-03-12T10:42:18.005Z,48.72
2023-03-12T10:44:54.462Z,48.12
2023-03-12T10:47:33.852Z,48.44
2023-03-12T10:50:18.992Z,49.57
2023-03-12T10:52:51.881Z,48.16
2023-03-12T10:55:25.156Z,48.73
2023-03-12T10:57:56.395Z,49.96
2023-03-12T11:00:29.886Z,52.33
2023-03-12T11:03:03.415Z,50.42
2023-03-12T11:05:36.598Z,50.69
2023-03-12T11:08:21.833Z,50.83
2023-03-12T11:10:53.762Z,48.86
2023-03-12T11:13:27.232Z,49.36
2023-03-12T11:15:59.937Z,48.55
2023-03-12T11:18:36.543Z,48.07
2023-03-12T11:21:23.760Z,47.73
2023-03-12T11:24:10.753Z,47.19
2023-03-12T11:26:47.998Z,46.16
2023-03-12T11:29:26.697Z,47.85
2023-03-12T11:32:06.393Z,47.27
2023-03-12T11:34:39.761Z,45.01
2023-03-12T11:37:15.899Z,45.01
2023-03-12T11:39:58.513Z,45.84
2023-03-12T11:42:46.469Z,46.45
2023-03-12T11:45:27.566Z,47.47
2023-03-12T11:48:18.138Z,47.66
2023-03-12T11:51:02.630Z,47.69
2023-03-12T11:53:52.690Z,47.63
2023-03-12T11:56:29.715Z,48.71
2023-03-12T11:59:18.840Z,47.01
2023-03-12T12:02:04.776Z,47.62
2023-03-12T12:05:06.058Z,46.24
2023-03-12T12:07:50.905Z,48.22
2023-03-12T12:10:35.754Z,46.23
2023-03-12T12:13:15.917Z,47.56
2023-03-12T12:15:57.176Z,47.08
2023-03-12T12:18:45.216Z,47.45
2023-03-12T12:21:29.226Z,47.29
2023-03-12T12:24:12.360Z,46.94
2023-03-12T12:26:49.523Z,47.90
2023-03-12T12:29:36.975Z,48.58
2023-03-12T12:32:16.716Z,48.36
2023-03-12T12:35:03.805Z,48.46
2023-03-12T12:37:45.400Z,48.79
2023-03-12T12:40:25.210Z,48.22
2023-03-12T12:43:03.831Z,49.03
2023-03-12T12:45:38.740Z,48.17
2023-03-12T12:48:16.976Z,46.97
2023-03-12T12:50:50.981Z,47.45
2023-03-12T12:53:25.773Z,46.75
2023-03-12T12:56:07.611Z,46.46
2023-03-12T12:59:02.295Z,46.73
2023-03-12T13:01:34.886Z,47.10
2023-03-12T13:04:11.323Z,46.92
2023-03-12T13:07:01.016Z,46.70
2023-03-12T13:09:41.240Z,47.93
2023-03-12T13:12:19.846Z,48.05
2023-03-12T13:14:51.654Z,48.22
2023-03-12T13:17:33.726Z,48.51
2023-03-12T13:20:18.080Z,47.76
2023-03-12T13:23:03.548Z,48.75
2023-03-12T13:25:49.050Z,48.51
2023-03-12T13:29:11.506Z,47.47
2023-03-12T13:31:44.877Z,48.85
2023-03-12T13:34:41.726Z,48.53
2023-03-12T13:37:28.005Z,48.35
2023-03-12T13:40:01.228Z,48.36
2023-03-12T13:42:41.040Z,48.96
2023-03-12T13:45:27.146Z,48.88
2023-03-12T13:48:02.061Z,48.83
2023-03-12T13:50:42.406Z,48.30
2023-03-12T13:53:22.309Z,48.60
2023-03-12T13:56:04.201Z,48.85
2023-03-12T13:58:44.433Z,49.05
2023-03-12T14:01:19.691Z,47.67
2023-03-12T14:03:53.782Z,48.57
2023-03-12T14:06:27.174Z,48.91
2023-03-12T14:09:12.802Z,48.86
2023-03-12T14:11:56.340Z,48.80
2023-03-12T14:14:52.772Z,48.41
2023-03-12T14:17:26.543Z,48.81
2023-03-12T14:20:02.698Z,48.81
2023-03-12T14:22:35.135Z,48.77
2023-03-12T14:25:13.339Z,48.74
2023-03-12T14:27:47.193Z,48.82
2023-03-12T14:30:32.525Z,48.91
2023-03-12T14:33:04.787Z,49.43
2023-03-12T14:35:42.024Z,49.50
2023-03-12T14:38:19.781Z,49.58
2023-03-12T14:40:56.120Z,49.10
2023-03-12T14:43:29.183Z,49.96
2023-03-12T14:46:02.064Z,49.90
2023-03-12T14:48:36.039Z,49.87
2023-03-12T14:51:08.093Z,49.62
2023-03-12T14:53:39.371Z,49.48
2023-03-12T14:56:15.055Z,49.03
2023-03-12T14:58:47.554Z,49.19
2023-03-12T15:01:21.352Z,48.85
2023-03-12T15:03:55.723Z,49.10
2023-03-12T15:06:30.710Z,49.12
2023-03-12T15:09:04.377Z,49.65
2023-03-12T15:11:37.159Z,49.56
2023-03-12T15:14:13.814Z,50.06
2023-03-12T15:16:45.044Z,49.39
2023-03-12T15:19:19.409Z,49.74
2023-03-12T15:21:50.666Z,49.97
2023-03-12T15:24:21.538Z,50.27
2023-03-12T15:26:52.264Z,50.37
2023-03-12T15:29:28.255Z,50.68
2023-03-12T15:32:00.798Z,50.37
2023-03-12T15:34:34.937Z,50.28
2023-03-12T15:37:22.738Z,50.27
2023-03-12T15:39:55.054Z,50.44
2023-03-12T15:42:28.125Z,50.55
2023-03-12T15:45:01.260Z,50.78
2023-03-12T15:47:40.132Z,50.73
2023-03-12T15:50:19.200Z,50.73
2023-03-12T15:53:03.255Z,50.94
2023-03-12T15:55:35.431Z,51.15
2023-03-12T15:58:26.883Z,51.14
2023-03-12T16:01:08.848Z,51.27
2023-03-12T16:03:40.662Z,51.50
2023-03-12T16:06:15.376Z,51.52
2023-03-12T16:08:49.253Z,51.47
2023-03-12T16:11:22.755Z,51.61
2023-03-12T16:13:58.657Z,51.56
2023-03-12T16:16:29.414Z,51.69
2023-03-12T16:19:00.214Z,51.78
2023-03-12T16:21:30.867Z,52.02
2023-03-12T16:24:01.558Z,52.22
2023-03-12T16:26:34.574Z,52.24
2023-03-12T16:29:05.773Z,52.13
2023-03-12T16:31:34.828Z,52.14
2023-03-12T16:34:05.483Z,52.20
2023-03-12T16:36:36.235Z,52.50
2023-03-12T16:39:06.923Z,52.70
2023-03-12T16:41:38.009Z,52.62
2023-03-12T16:44:14.228Z,52.83
2023-03-12T16:46:46.086Z,52.88
2023-03-12T16:49:17.675Z,53.00
2023-03-12T16:51:48.787Z,53.03
2023-03-12T16:54:17.956Z,53.25
2023-03-12T16:56:49.639Z,53.26
2023-03-12T16:59:26.944Z,52.88
2023-03-12T17:01:57.672Z,52.64
2023-03-12T17:04:28.352Z,52.94
2023-03-12T17:06:59.110Z,52.56
2023-03-12T17:09:30.376Z,52.90
2023-03-12T17:12:01.618Z,52.93
2023-03-12T17:14:31.268Z,52.55
2023-03-12T17:17:01.929Z,52.15
2023-03-12T17:19:32.602Z,52.25
2023-03-12T17:22:03.597Z,52.44
2023-03-12T17:24:32.870Z,52.32
2023-03-12T17:27:03.654Z,52.40
2023-03-12T17:29:34.337Z,52.67
2023-03-12T17:32:05.011Z,52.64
2023-03-12T17:34:35.716Z,52.70
2023-03-12T17:37:06.528Z,52.85
2023-03-12T17:39:37.256Z,52.91
2023-03-12T17:42:08.155Z,52.90
2023-03-12T17:44:39.001Z,52.81
2023-03-12T17:47:09.715Z,52.85
2023-03-12T17:49:41.251Z,52.83
2023-03-12T17:52:12.127Z,52.84
2023-03-12T17:54:42.855Z,52.85
2023-03-12T17:57:13.552Z,52.69
2023-03-12T17:59:44.417Z,52.63
2023-03-12T18:02:15.508Z,52.74
2023-03-12T18:04:46.721Z,52.90
2023-03-12T18:07:17.491Z,52.93
2023-03-12T18:09:48.193Z,53.01
2023-03-12T18:12:19.038Z,52.98
2023-03-12T18:14:49.657Z,52.78
2023-03-12T18:17:20.683Z,52.83
2023-03-12T18:19:51.354Z,52.53
2023-03-12T18:22:22.640Z,52.42
2023-03-12T18:24:53.280Z,52.42
2023-03-12T18:27:24.056Z,52.29
2023-03-12T18:29:54.990Z,51.93
2023-03-12T18:32:25.792Z,51.56
2023-03-12T18:34:56.492Z,52.01
2023-03-12T18:37:27.183Z,51.92
2023-03-12T18:39:57.903Z,51.91
2023-03-12T18:42:28.735Z,52.16
2023-03-12T18:44:58.449Z,52.24
2023-03-12T18:47:29.412Z,52.19
2023-03-12T18:50:00.207Z,52.40
2023-03-12T18:52:31.073Z,52.47
2023-03-12T18:55:01.807Z,52.16
2023-03-12T18:57:32.780Z,52.16
2023-03-12T19:00:03.911Z,51.93
2023-03-12T19:02:35.216Z,52.22
2023-03-12T19:05:06.990Z,52.06
2023-03-12T19:07:39.089Z,51.93
2023-03-12T19:10:13.153Z,51.81
2023-03-12T19:12:52.892Z,52.40
2023-03-12T19:15:25.176Z,53.63
2023-03-12T19:17:56.055Z,54.61
2023-03-12T19:20:26.889Z,54.67
2023-03-12T19:22:57.773Z,54.72
2023-03-12T19:25:28.793Z,54.63
2023-03-12T19:27:59.511Z,55.01
2023-03-12T19:30:30.098Z,55.01
2023-03-12T19:33:00.974Z,55.15
2023-03-12T19:35:31.916Z,55.21
2023-03-12T19:38:02.730Z,55.38
2023-03-12T19:40:35.435Z,55.32
2023-03-12T19:43:06.288Z,55.66
2023-03-12T19:45:37.513Z,55.81
2023-03-12T19:48:08.795Z,55.83
2023-03-12T19:50:37.985Z,55.85
2023-03-12T19:53:08.866Z,56.16
2023-03-12T19:55:39.739Z,56.45
2023-03-12T19:58:10.473Z,56.70
2023-03-12T20:00:41.219Z,57.52
2023-03-12T20:03:12.356Z,58.13
2023-03-12T20:05:45.534Z,58.67
2023-03-12T20:08:16.689Z,59.02
2023-03-12T20:10:47.450Z,59.81
2023-03-12T20:13:18.200Z,60.33
2023-03-12T20:15:49.009Z,60.62
2023-03-12T20:18:20.230Z,61.99
2023-03-12T20:20:49.276Z,61.61
2023-03-12T20:23:20.367Z,62.78
2023-03-12T20:25:51.824Z,62.21
2023-03-12T20:28:22.593Z,62.60
2023-03-12T20:30:53.387Z,63.46
2023-03-12T20:33:24.325Z,63.18
2023-03-12T20:35:54.970Z,63.22
2023-03-12T20:38:26.219Z,63.40
2023-03-12T20:40:56.932Z,64.16
2023-03-12T20:43:27.836Z,64.01
2023-03-12T20:45:58.593Z,65.12
2023-03-12T20:48:29.692Z,64.75
2023-03-12T20:51:00.288Z,65.87
2023-03-12T20:53:31.402Z,65.42
2023-03-12T20:56:02.043Z,65.50
2023-03-12T20:58:32.759Z,65.63
2023-03-12T21:01:04.643Z,65.91
2023-03-12T21:03:35.400Z,66.23
2023-03-12T21:06:06.576Z,66.17
2023-03-12T21:08:37.275Z,65.92
2023-03-12T21:11:08.774Z,65.68
2023-03-12T21:13:39.464Z,66.16
2023-03-12T21:16:12.138Z,66.04
2023-03-12T21:18:42.854Z,66.44
2023-03-12T21:21:13.851Z,66.29
2023-03-12T21:23:44.718Z,66.58
2023-03-12T21:26:15.461Z,66.83
2023-03-12T21:28:46.190Z,66.60
2023-03-12T21:31:18.218Z,66.77
2023-03-12T21:33:48.953Z,67.21
2023-03-12T21:36:19.570Z,66.98
2023-03-12T21:38:50.393Z,66.82
2023-03-12T21:41:21.679Z,66.82
2023-03-12T21:43:52.428Z,66.82
2023-03-12T21:46:23.196Z,66.96
2023-03-12T21:48:54.042Z,66.82
2023-03-12T21:51:24.814Z,67.02
2023-03-12T21:53:56.770Z,66.99
2023-03-12T21:56:27.440Z,67.00
2023-03-12T21:58:58.631Z,66.91
2023-03-12T22:01:27.899Z,67.14
2023-03-12T22:04:00.047Z,67.10
2023-03-12T22:06:31.058Z,67.21
2023-03-12T22:09:02.168Z,67.36
2023-03-12T22:11:31.245Z,67.39
2023-03-12T22:14:02.349Z,67.29
2023-03-12T22:16:31.535Z,67.44
2023-03-12T22:19:02.256Z,67.44
2023-03-12T22:21:33.018Z,67.52
2023-03-12T22:24:04.007Z,67.68
2023-03-12T22:26:34.709Z,67.73
2023-03-12T22:29:05.377Z,67.99
2023-03-12T22:31:36.167Z,68.05
2023-03-12T22:34:06.833Z,68.10
2023-03-12T22:36:39.787Z,68.31
2023-03-12T22:39:10.413Z,68.41
2023-03-12T22:41:41.009Z,68.45
2023-03-12T22:44:12.674Z,68.77
2023-03-12T22:46:43.355Z,68.75
2023-03-12T22:49:15.126Z,69.02
2023-03-12T22:51:45.778Z,69.49
2023-03-12T22:54:16.503Z,69.21
2023-03-12T22:56:47.100Z,69.47
2023-03-12T22:59:17.751Z,69.45
2023-03-12T23:01:48.487Z,69.55
2023-03-12T23:04:19.362Z,69.66
2023-03-12T23:06:50.082Z,69.58
2023-03-12T23:09:20.799Z,69.62
2023-03-12T23:11:51.450Z,69.77
2023-03-12T23:14:22.148Z,69.79
2023-03-12T23:16:52.863Z,70.04
2023-03-12T23:19:23.606Z,69.98
2023-03-12T23:21:54.366Z,70.09
2023-03-12T23:24:25.122Z,69.87
2023-03-12T23:26:55.776Z,69.96
2023-03-12T23:29:26.796Z,70.25
2023-03-12T23:31:57.513Z,70.56
2023-03-12T23:34:28.753Z,70.59
2023-03-12T23:36:59.620Z,70.80
2023-03-12T23:39:32.775Z,70.68
2023-03-12T23:42:06.406Z,70.85
2023-03-12T23:44:37.041Z,70.76
2023-03-12T23:47:08.389Z,70.86
2023-03-12T23:49:39.569Z,71.25
2023-03-12T23:52:08.645Z,71.19
2023-03-12T23:54:39.246Z,71.28
2023-03-12T23:57:09.927Z,71.36
2023-03-12T23:59:40.572Z,71.57
